Time;durP1;ratioP1;P1;durP2;ratioP2;P2;SDS_P1;SDS_P2;PMS_P1;PMS_P2;Temp;Humidity;BMP_temperature;BMP_pressure;BME280_temperature;BME280_humidity;BME280_pressure;Samples;Min_cycle;Max_cycle;Signal;HPM_P1;HPM_P2
2023/03/10 00:00:40;;;;;;;0.50;0.10;;;12.30;1.00;;;;;;4998495;28;20457;-76
2023/03/10 00:03:09;;;;;;;0.60;0.10;;;12.30;1.00;;;;;;5013478;28;20457;-75
2023/03/10 00:05:38;;;;;;;0.50;0.10;;;12.30;1.00;;;;;;5015519;28;20471;-77
2023/03/10 00:08:07;;;;;;;0.60;0.10;;;12.20;1.00;;;;;;5016559;28;20481;-76
2023/03/10 00:10:35;;;;;;;0.60;0.10;;;12.20;1.00;;;;;;5017198;28;20510;-76
2023/03/10 00:13:02;;;;;;;0.50;0.10;;;12.30;1.00;;;;;;5016370;28;20550;-76
2023/03/10 00:15:31;;;;;;;0.50;0.10;;;12.20;1.00;;;;;;5003686;28;20537;-77
2023/03/10 00:17:59;;;;;;;0.50;0.10;;;12.30;1.00;;;;;;4986459;28;20433;-76
2023/03/10 00:20:28;;;;;;;0.50;0.10;;;12.20;1.00;;;;;;4980856;28;20544;-77
2023/03/10 00:22:56;;;;;;;0.50;0.10;;;12.30;1.00;;;;;;4979220;28;20530;-78
2023/03/10 00:25:24;;;;;;;0.60;0.10;;;12.20;1.00;;;;;;4989697;28;20470;-79
2023/03/10 00:27:52;;;;;;;0.50;0.10;;;12.20;1.00;;;;;;4999000;28;20480;-78
2023/03/10 00:30:20;;;;;;;0.50;0.10;;;12.20;1.00;;;;;;5005435;28;20951;-77
2023/03/10 00:32:49;;;;;;;0.60;0.27;;;12.30;1.00;;;;;;4999635;28;20514;-78
2023/03/10 00:35:18;;;;;;;0.60;0.10;;;;;;;;;;4989119;28;20519;-77
2023/03/10 00:37:47;;;;;;;0.50;0.10;;;12.20;1.00;;;;;;4995369;28;20459;-77
2023/03/10 00:40:15;;;;;;;0.50;0.10;;;12.20;1.00;;;;;;4995579;28;20828;-78
2023/03/10 00:42:49;;;;;;;0.50;0.10;;;12.20;1.00;;;;;;4997590;28;20505;-78
2023/03/10 00:45:17;;;;;;;0.57;0.10;;;12.30;1.00;;;;;;4999483;28;20566;-74
2023/03/10 00:47:45;;;;;;;0.50;0.10;;;12.30;1.00;;;;;;4998377;28;20442;-76
2023/03/10 00:50:12;;;;;;;0.50;0.10;;;12.20;1.00;;;;;;4998418;28;20454;-80
2023/03/10 00:52:41;;;;;;;0.50;0.10;;;12.20;1.00;;;;;;4997508;28;20544;-76
2023/03/10 00:55:12;;;;;;;0.60;0.10;;;12.20;1.00;;;;;;4996858;28;20473;-78
2023/03/10 00:57:40;;;;;;;0.50;0.10;;;12.20;1.00;;;;;;5001895;28;20457;-79
2023/03/10 05:01:16;;;;;;;0.50;0.10;;;11.50;99.90;;;;;;5744719;23;20495;-76
2023/03/10 05:03:45;;;;;;;0.50;0.10;;;11.50;99.90;;;;;;5032592;28;20472;-78
2023/03/10 05:06:14;;;;;;;0.50;0.10;;;11.40;99.90;;;;;;5035520;28;20464;-76
2023/03/10 05:08:43;;;;;;;1.43;0.77;;;;;;;;;;5036002;28;20465;-77
2023/03/10 05:11:11;;;;;;;0.50;0.10;;;11.40;99.90;;;;;;5042797;28;20465;-77
2023/03/10 05:13:39;;;;;;;0.50;0.10;;;;;;;;;;5060410;23;20493;31
2023/03/10 05:16:13;;;;;;;0.50;0.10;;;11.40;99.90;;;;;;4994427;28;20524;-75
2023/03/10 05:18:43;;;;;;;0.50;0.10;;;11.40;99.90;;;;;;5006881;28;20499;-73
2023/03/10 05:21:11;;;;;;;0.50;0.10;;;11.40;99.90;;;;;;5004081;28;20454;-73
2023/03/10 05:23:39;;;;;;;0.50;0.10;;;11.50;99.90;;;;;;5005192;28;20959;-74
2023/03/10 05:26:08;;;;;;;0.50;0.10;;;11.50;99.90;;;;;;5036945;28;20859;-74
2023/03/10 05:28:36;;;;;;;0.50;0.20;;;11.50;99.90;;;;;;5034864;28;20499;-76
2023/03/10 05:31:09;;;;;;;0.50;0.10;;;11.50;99.90;;;;;;5028168;28;20452;-73
2023/03/10 05:33:37;;;;;;;0.50;0.10;;;;;;;;;;5016942;28;20497;-74
2023/03/10 05:36:08;;;;;;;0.50;0.10;;;11.50;99.90;;;;;;5015514;28;20506;-74
2023/03/10 05:38:37;;;;;;;0.50;0.10;;;11.40;99.90;;;;;;5015798;28;20443;-74
2023/03/10 05:41:07;;;;;;;0.50;0.10;;;11.40;99.90;;;;;;5016012;28;20470;-74
2023/03/10 05:43:34;;;;;;;0.50;0.10;;;11.50;99.90;;;;;;5029627;28;20439;-73
2023/03/10 05:46:03;;;;;;;0.50;0.10;;;11.40;99.90;;;;;;5015620;28;20445;-74
2023/03/10 05:48:31;;;;;;;0.50;0.10;;;11.50;99.90;;;;;;5015530;28;21014;-74
2023/03/10 05:51:00;;;;;;;0.50;0.10;;;11.50;99.90;;;;;;5022101;28;20799;-73
2023/03/10 05:53:30;;;;;;;0.50;0.10;;;11.50;99.90;;;;;;5022405;28;20489;-73
2023/03/10 05:55:58;;;;;;;0.50;0.10;;;11.50;99.90;;;;;;5024294;28;20471;-74
2023/03/10 05:58:26;;;;;;;0.50;0.10;;;;;;;;;;5027845;28;20445;-73
2023/03/10 06:00:54;;;;;;;0.50;0.10;;;11.50;99.90;;;;;;5037264;28;20447;-73
2023/03/10 06:03:23;;;;;;;0.50;0.10;;;11.40;99.90;;;;;;5027090;28;20547;-73
2023/03/10 06:05:51;;;;;;;0.50;0.10;;;11.40;99.90;;;;;;5021598;28;20485;-73
2023/03/10 06:08:19;;;;;;;0.50;0.10;;;11.40;99.90;;;;;;5028630;28;20964;-74
2023/03/10 06:10:49;;;;;;;0.50;0.10;;;11.40;99.90;;;;;;5027616;28;20445;-74
2023/03/10 06:13:18;;;;;;;0.50;0.10;;;11.40;99.90;;;;;;5036442;28;20882;-74
2023/03/10 06:15:49;;;;;;;1.63;0.83;;;11.40;99.90;;;;;;5039023;28;20479;-74
2023/03/10 06:18:18;;;;;;;0.50;0.10;;;11.40;99.90;;;;;;5035423;28;20447;-74
2023/03/10 06:20:47;;;;;;;0.90;0.40;;;11.40;99.90;;;;;;5017528;28;20856;-74
2023/03/10 06:23:16;;;;;;;0.50;0.10;;;11.40;99.90;;;;;;5017685;28;20436;-75
2023/03/10 06:25:54;;;;;;;0.50;0.10;;;11.40;99.90;;;;;;5015422;28;20483;-73
2023/03/10 06:28:24;;;;;;;0.50;0.20;;;11.40;99.90;;;;;;5015128;28;20490;-74
2023/03/10 06:30:55;;;;;;;0.50;0.10;;;11.40;99.90;;;;;;5015780;28;20456;-73
2023/03/10 06:33:24;;;;;;;0.50;0.10;;;11.30;99.90;;;;;;5017705;28;20484;-73
2023/03/10 06:35:52;;;;;;;0.50;0.10;;;11.30;99.90;;;;;;5016474;28;20464;-73
2023/03/10 06:38:21;;;;;;;0.50;0.10;;;11.30;99.90;;;;;;5015714;28;20445;-72
2023/03/10 06:40:49;;;;;;;0.77;0.30;;;;;;;;;;5017081;28;20460;-75
2023/03/10 06:43:18;;;;;;;0.50;0.10;;;11.20;99.90;;;;;;5015090;28;20844;-74
2023/03/10 06:45:48;;;;;;;0.50;0.10;;;11.20;99.90;;;;;;5014209;28;20496;-73
2023/03/10 06:48:16;;;;;;;0.50;0.10;;;11.20;99.90;;;;;;5015920;28;20454;-75
2023/03/10 06:50:46;;;;;;;0.60;0.30;;;11.20;1.00;;;;;;5014801;28;20545;-74
2023/03/10 06:53:16;;;;;;;0.50;0.10;;;11.20;1.00;;;;;;5016180;28;20482;-73
2023/03/10 06:55:44;;;;;;;0.50;0.10;;;11.20;1.00;;;;;;5016810;28;20570;-75
2023/03/10 06:58:12;;;;;;;0.50;0.10;;;11.20;1.00;;;;;;5017001;28;20445;-74
2023/03/10 07:00:40;;;;;;;0.50;0.10;;;11.20;1.00;;;;;;5015626;28;20449;-74
2023/03/10 07:03:10;;;;;;;0.50;0.10;;;11.30;1.00;;;;;;5015164;28;20447;-74
2023/03/10 07:05:38;;;;;;;0.50;0.10;;;11.20;1.00;;;;;;5013778;28;20544;-74
2023/03/10 07:08:06;;;;;;;0.50;0.10;;;11.20;1.00;;;;;;5013969;28;20459;-75
2023/03/10 07:10:34;;;;;;;0.50;0.10;;;11.20;1.00;;;;;;5014656;28;20480;-74
2023/03/10 07:13:02;;;;;;;0.50;0.10;;;11.20;1.00;;;;;;4996164;28;20927;-73
2023/03/10 07:15:30;;;;;;;0.50;0.10;;;11.20;1.00;;;;;;5009042;28;20503;-74
2023/03/10 07:17:59;;;;;;;0.50;0.10;;;11.20;1.00;;;;;;5018959;28;21013;-75
2023/03/10 07:20:28;;;;;;;0.50;0.10;;;11.20;1.00;;;;;;5025129;28;20946;-76
2023/03/10 07:22:56;;;;;;;0.50;0.10;;;11.20;1.00;;;;;;5027078;28;20463;-74
2023/03/10 07:25:24;;;;;;;0.50;0.10;;;;;;;;;;5016846;28;20467;-76
2023/03/10 07:27:52;;;;;;;0.50;0.10;;;11.20;1.00;;;;;;5017566;28;20956;-76
2023/03/10 07:30:20;;;;;;;6.07;1.17;;;11.20;1.00;;;;;;5016497;28;20453;-75
2023/03/10 07:32:51;;;;;;;0.50;0.10;;;11.20;1.00;;;;;;5018170;28;20882;-76
2023/03/10 07:35:20;;;;;;;0.50;0.10;;;11.20;1.00;;;;;;5009123;28;20496;-74
2023/03/10 07:37:49;;;;;;;0.50;0.10;;;11.30;1.00;;;;;;5012348;28;20448;-73
2023/03/10 07:40:21;;;;;;;0.50;0.10;;;11.30;1.00;;;;;;5013748;28;20440;-75
2023/03/10 07:42:49;;;;;;;0.50;0.10;;;11.30;1.00;;;;;;5015774;28;20476;-74
2023/03/10 07:45:17;;;;;;;0.50;0.10;;;11.30;1.00;;;;;;5011761;28;20598;-75
2023/03/10 07:47:45;;;;;;;0.50;0.10;;;11.20;1.00;;;;;;5017181;28;20444;-74
2023/03/10 07:50:13;;;;;;;0.50;0.10;;;11.30;1.00;;;;;;5023816;28;20781;-73
2023/03/10 07:52:41;;;;;;;0.50;0.10;;;11.30;1.00;;;;;;5023736;28;20452;-74
2023/03/10 07:55:10;;;;;;;0.50;0.10;;;11.30;1.00;;;;;;5017736;28;20481;-76
2023/03/10 07:57:38;;;;;;;0.50;0.10;;;11.30;1.00;;;;;;5013551;28;20441;-76
2023/03/10 08:00:08;;;;;;;0.50;0.10;;;11.30;1.00;;;;;;5015878;28;20448;-75
2023/03/10 08:02:41;;;;;;;0.50;0.20;;;11.30;1.00;;;;;;5013725;28;20477;-74
2023/03/10 08:05:10;;;;;;;0.50;0.10;;;11.30;1.00;;;;;;5012974;28;20978;-75
2023/03/10 08:07:39;;;;;;;0.50;0.10;;;11.30;1.00;;;;;;5015758;28;20455;-75
2023/03/10 08:10:07;;;;;;;0.50;0.10;;;11.30;1.00;;;;;;5014874;28;20448;-74
2023/03/10 08:12:36;;;;;;;0.50;0.10;;;11.30;1.00;;;;;;5014952;28;20448;-74
2023/03/10 08:15:05;;;;;;;0.50;0.10;;;11.30;1.00;;;;;;5014739;28;20549;-75
2023/03/10 08:17:33;;;;;;;0.50;0.10;;;11.30;1.00;;;;;;5003296;28;20454;-73
2023/03/10 08:20:02;;;;;;;0.50;0.10;;;11.30;1.00;;;;;;5014822;28;20445;-73
2023/03/10 08:22:30;;;;;;;0.60;0.30;;;;;;;;;;5011801;28;20842;-73
2023/03/10 08:24:58;;;;;;;2.50;2.10;;;11.30;1.00;;;;;;5013741;28;20484;-74
2023/03/10 08:27:26;;;;;;;0.50;0.10;;;11.20;1.00;;;;;;5001378;28;20548;-74
2023/03/10 08:29:57;;;;;;;0.50;0.10;;;11.10;1.00;;;;;;5007937;28;20454;-74
2023/03/10 08:32:25;;;;;;;0.50;0.10;;;11.10;1.00;;;;;;5012333;28;20455;-75
2023/03/10 08:34:53;;;;;;;0.50;0.10;;;11.10;1.00;;;;;;5001381;28;20486;-76
2023/03/10 08:37:21;;;;;;;0.50;0.10;;;11.00;1.00;;;;;;5012329;28;20445;-74
2023/03/10 08:39:52;;;;;;;0.50;0.20;;;11.00;1.00;;;;;;5012389;28;20451;-75
2023/03/10 08:42:20;;;;;;;0.50;0.10;;;11.00;1.00;;;;;;4993801;28;20762;-76
2023/03/10 08:44:48;;;;;;;0.50;0.10;;;11.10;1.00;;;;;;4993767;28;20457;-76
2023/03/10 08:47:17;;;;;;;0.50;0.20;;;11.10;1.00;;;;;;4992672;28;20449;-75
2023/03/10 08:49:47;;;;;;;0.50;0.10;;;;;;;;;;4992994;28;20957;-74
2023/03/10 08:52:16;;;;;;;0.90;0.30;;;11.20;1.00;;;;;;4995340;28;20440;-74
2023/03/10 08:54:44;;;;;;;0.60;0.60;;;11.10;1.00;;;;;;5012843;28;20494;-75
2023/03/10 08:57:12;;;;;;;0.83;0.83;;;11.10;1.00;;;;;;5012032;28;20446;-74
2023/03/10 08:59:40;;;;;;;0.50;0.10;;;11.10;1.00;;;;;;5012093;28;20476;-74
2023/03/10 09:02:10;;;;;;;0.60;0.20;;;11.20;1.00;;;;;;5011438;28;20481;-75
2023/03/10 09:04:43;;;;;;;0.50;0.10;;;11.20;1.00;;;;;;5004768;28;20467;-74
2023/03/10 09:07:11;;;;;;;0.50;0.20;;;11.20;1.00;;;;;;5002597;28;20524;-73
2023/03/10 09:09:38;;;;;;;0.50;0.10;;;11.20;1.00;;;;;;4996402;28;20446;-74
2023/03/10 09:12:07;;;;;;;0.50;0.20;;;11.30;99.90;;;;;;5009074;28;20448;-74
2023/03/10 09:14:35;;;;;;;2.60;2.40;;;11.40;99.90;;;;;;5020918;28;20499;-75
2023/03/10 09:17:04;;;;;;;0.50;0.17;;;11.30;99.90;;;;;;5015767;28;20885;-76
2023/03/10 09:19:32;;;;;;;0.50;0.10;;;11.30;99.90;;;;;;5009019;28;20503;-76
2023/03/10 09:22:01;;;;;;;0.90;0.40;;;11.30;99.90;;;;;;5007561;28;20991;-75
2023/03/10 09:24:31;;;;;;;0.50;0.20;;;11.30;99.90;;;;;;5021322;28;20470;-75
2023/03/10 09:26:59;;;;;;;0.50;0.10;;;11.20;99.90;;;;;;5028291;28;20446;-75
2023/03/10 09:29:27;;;;;;;0.50;0.10;;;11.40;99.90;;;;;;5030790;28;20478;-75
2023/03/10 09:32:10;;;;;;;0.50;0.10;;;11.50;99.90;;;;;;5028646;28;20443;-74
2023/03/10 09:34:38;;;;;;;10.67;3.73;;;11.60;99.90;;;;;;5024217;28;20482;-73
2023/03/10 09:37:08;;;;;;;0.50;0.10;;;11.80;99.90;;;;;;5021884;28;20786;-73
2023/03/10 09:39:36;;;;;;;0.50;0.10;;;11.90;99.90;;;;;;5029889;28;20480;-74
2023/03/10 09:42:27;;;;;;;0.50;0.10;;;12.00;99.90;;;;;;5020356;28;20451;-74
2023/03/10 09:45:23;;;;;;;0.50;0.10;;;12.10;99.90;;;;;;5015139;28;20475;-75
2023/03/10 09:48:11;;;;;;;0.50;0.10;;;12.10;99.90;;;;;;5016006;28;20457;-75
2023/03/10 09:50:43;;;;;;;0.50;0.10;;;12.10;99.90;;;;;;5031226;28;20460;-76
2023/03/10 09:53:29;;;;;;;0.50;0.10;;;12.00;99.90;;;;;;5037662;28;20445;-75
2023/03/10 09:55:57;;;;;;;1.90;0.87;;;11.90;99.90;;;;;;5037116;28;20484;-74
2023/03/10 09:58:32;;;;;;;32.97;1.07;;;11.80;99.90;;;;;;5023678;28;20922;-75
2023/03/10 10:01:01;;;;;;;0.87;0.67;;;11.80;99.90;;;;;;5016478;28;20563;-75
2023/03/10 10:03:34;;;;;;;0.60;0.10;;;11.90;99.90;;;;;;5017697;28;20450;-74
2023/03/10 10:06:20;;;;;;;0.50;0.10;;;12.10;99.90;;;;;;5020360;28;20452;-75
2023/03/10 10:08:55;;;;;;;0.60;0.20;;;12.20;99.90;;;;;;5022229;28;20454;-74
2023/03/10 10:11:32;;;;;;;0.50;0.10;;;12.30;99.90;;;;;;5009309;28;20467;-75
2023/03/10 10:14:15;;;;;;;1.80;0.30;;;12.20;99.90;;;;;;5007964;28;20490;-74
2023/03/10 10:17:02;;;;;;;0.70;0.30;;;12.20;99.90;;;;;;5016886;28;20825;-75
2023/03/10 10:19:31;;;;;;;0.50;0.10;;;12.30;99.90;;;;;;5018014;28;20438;-73
2023/03/10 10:22:07;;;;;;;2.40;0.30;;;12.30;99.90;;;;;;5017951;28;20952;-75
2023/03/10 10:24:37;;;;;;;0.50;0.20;;;12.30;99.90;;;;;;5022114;28;20903;-75
2023/03/10 10:27:05;;;;;;;0.50;0.10;;;12.30;99.90;;;;;;5025128;28;20442;-75
2023/03/10 10:29:35;;;;;;;1.87;0.20;;;12.20;99.90;;;;;;5023086;28;20523;-73
2023/03/10 10:32:09;;;;;;;0.50;0.10;;;12.20;99.90;;;;;;5023961;28;20965;-75
2023/03/10 10:34:39;;;;;;;3.20;0.57;;;12.00;99.90;;;;;;5022034;28;20466;-74
2023/03/10 10:37:28;;;;;;;0.50;0.10;;;12.00;99.90;;;;;;5017177;28;20449;-75
2023/03/10 10:40:03;;;;;;;0.50;0.10;;;12.00;99.90;;;;;;5016098;28;20449;-74
2023/03/10 10:42:34;;;;;;;0.50;0.10;;;11.90;99.90;;;;;;5011017;28;20520;-74
2023/03/10 10:45:57;;;;;;;;;;;;;;;;;;;;;
2023/03/10 10:48:36;;;;;;;0.50;0.10;;;11.90;99.90;;;;;;5014426;28;20455;-75
2023/03/10 10:51:06;;;;;;;1.80;0.37;;;11.80;99.90;;;;;;5015992;28;20522;-75
2023/03/10 10:53:43;;;;;;;0.50;0.10;;;11.80;99.90;;;;;;5017186;28;20460;-74
2023/03/10 10:56:18;;;;;;;0.50;0.10;;;11.90;99.90;;;;;;5015250;28;20481;-75
2023/03/10 10:59:01;;;;;;;0.60;0.20;;;12.00;99.90;;;;;;5016960;28;20446;-73
2023/03/10 11:01:47;;;;;;;0.53;0.10;;;12.10;99.90;;;;;;5003988;28;20464;-75
2023/03/10 11:04:15;;;;;;;0.60;0.10;;;12.20;99.90;;;;;;5015040;28;20465;-76
2023/03/10 11:06:44;;;;;;;0.60;0.10;;;12.40;99.90;;;;;;5014675;28;20449;-74
2023/03/10 11:09:17;;;;;;;1.30;1.20;;;12.60;99.90;;;;;;5014709;28;20434;-77
2023/03/10 11:11:55;;;;;;;0.60;0.10;;;12.70;99.90;;;;;;5015165;28;20489;-75
2023/03/10 11:14:36;;;;;;;0.60;0.10;;;13.00;99.90;;;;;;5014447;28;20466;-73
2023/03/10 11:17:14;;;;;;;0.60;0.10;;;13.00;99.90;;;;;;5015075;28;20562;-75
2023/03/10 11:19:59;;;;;;;0.60;0.20;;;13.20;99.90;;;;;;5015009;28;20424;-75
2023/03/10 11:22:36;;;;;;;0.70;0.20;;;13.20;99.90;;;;;;5015091;28;20446;-75
2023/03/10 11:25:14;;;;;;;0.60;0.10;;;13.10;99.90;;;;;;5016645;28;20990;-74
2023/03/10 11:27:50;;;;;;;0.60;0.10;;;13.20;99.90;;;;;;5014954;28;20450;-75
2023/03/10 11:30:25;;;;;;;0.70;0.37;;;13.30;99.90;;;;;;5015394;28;20501;-74
2023/03/10 11:33:04;;;;;;;0.60;0.10;;;13.30;99.90;;;;;;5015728;28;20877;-75
2023/03/10 11:35:42;;;;;;;1.33;1.23;;;13.40;99.90;;;;;;5019624;28;21235;-73
2023/03/10 11:38:33;;;;;;;0.60;0.20;;;13.40;99.90;;;;;;5021210;28;20928;-74
2023/03/10 11:41:06;;;;;;;0.60;0.10;;;13.30;99.90;;;;;;5021199;28;20430;-75
2023/03/10 11:43:45;;;;;;;0.60;0.10;;;13.00;99.90;;;;;;5019820;28;20450;-76
2023/03/10 11:46:20;;;;;;;0.70;0.30;;;13.00;99.90;;;;;;5021237;28;20461;-75
2023/03/10 11:48:58;;;;;;;0.60;0.20;;;12.70;99.90;;;;;;5026676;28;20870;-76
2023/03/10 11:51:31;;;;;;;0.60;0.10;;;12.70;99.90;;;;;;5018773;28;20446;-74
2023/03/10 11:54:01;;;;;;;0.60;0.10;;;12.70;99.90;;;;;;5026147;28;20467;-73
2023/03/10 11:56:29;;;;;;;0.80;0.20;;;12.70;99.90;;;;;;5020814;28;20489;-74
2023/03/10 11:59:07;;;;;;;0.60;0.10;;;12.80;99.90;;;;;;5021146;28;20453;-75
2023/03/10 12:01:40;;;;;;;0.60;0.30;;;12.80;99.90;;;;;;5021552;28;20484;-73
2023/03/10 12:04:14;;;;;;;0.60;0.10;;;12.80;99.90;;;;;;5026578;28;20817;-73
2023/03/10 12:06:46;;;;;;;0.60;0.10;;;12.80;99.90;;;;;;5029244;28;20449;-76
2023/03/10 12:09:20;;;;;;;0.60;0.10;;;12.80;99.90;;;;;;5008913;28;20439;-74
2023/03/10 12:11:48;;;;;;;0.60;0.23;;;12.60;99.90;;;;;;5005777;28;20466;-73
2023/03/10 12:14:18;;;;;;;0.60;0.20;;;12.60;99.90;;;;;;5005996;28;20548;-73
2023/03/10 12:16:48;;;;;;;0.60;0.10;;;12.70;99.90;;;;;;5006224;28;21006;-74
2023/03/10 12:19:16;;;;;;;0.60;0.10;;;12.60;99.90;;;;;;5017768;28;20452;-73
2023/03/10 12:21:46;;;;;;;0.60;0.10;;;12.80;99.90;;;;;;5027386;28;20442;-75
2023/03/10 12:24:42;;;;;;;0.60;0.10;;;12.90;99.90;;;;;;5027074;28;20891;-75
2023/03/10 12:27:12;;;;;;;0.60;0.10;;;12.90;99.90;;;;;;5034900;28;20455;-74
2023/03/10 12:29:43;;;;;;;0.60;0.20;;;12.70;99.90;;;;;;5025826;28;20456;-75
2023/03/10 12:32:45;;;;;;;0.60;0.10;;;12.70;99.90;;;;;;5035664;28;20450;-75
2023/03/10 12:35:47;;;;;;;0.50;0.10;;;12.60;99.90;;;;;;5037515;28;20463;-75
2023/03/10 12:38:31;;;;;;;0.60;0.10;;;12.60;99.90;;;;;;5045647;28;20964;-74
2023/03/10 12:41:00;;;;;;;0.60;0.10;;;12.50;99.90;;;;;;5043855;28;20447;-75
2023/03/10 12:43:56;;;;;;;4.43;1.30;;;12.60;99.90;;;;;;5045607;28;20444;-77
2023/03/10 12:46:40;;;;;;;0.60;0.10;;;12.60;99.90;;;;;;5048432;28;20437;-74
2023/03/10 12:49:23;;;;;;;0.60;0.10;;;12.60;99.90;;;;;;5050362;28;20681;-74
2023/03/10 12:51:55;;;;;;;0.50;0.10;;;12.50;99.90;;;;;;5024430;23;20486;-74
2023/03/10 12:54:44;;;;;;;0.93;0.83;;;12.60;99.90;;;;;;4978747;28;20808;-73
2023/03/10 12:57:17;;;;;;;0.60;0.10;;;12.50;99.90;;;;;;4957851;28;20486;-73
2023/03/10 12:59:54;;;;;;;0.60;0.20;;;12.40;99.90;;;;;;4967818;28;20812;-74
2023/03/10 13:02:29;;;;;;;0.50;0.10;;;12.20;99.90;;;;;;4960428;29;20515;-74
2023/03/10 13:05:03;;;;;;;0.60;0.10;;;;;;;;;;4960289;29;20448;-74
2023/03/10 13:07:31;;;;;;;0.50;0.10;;;12.10;99.90;;;;;;4972516;28;20450;-73
2023/03/10 13:10:02;;;;;;;0.60;0.10;;;11.80;99.90;;;;;;4980688;28;20960;-74
2023/03/10 13:12:33;;;;;;;0.80;0.67;;;11.80;99.90;;;;;;4980787;28;20467;-74
2023/03/10 13:15:03;;;;;;;0.50;0.10;;;11.90;99.90;;;;;;4979437;28;20462;-73
2023/03/10 13:17:32;;;;;;;0.50;0.10;;;11.90;99.90;;;;;;4975029;28;20480;-74
2023/03/10 13:20:05;;;;;;;1.13;0.40;;;11.80;99.90;;;;;;4979822;28;20452;-74
2023/03/10 13:22:33;;;;;;;0.50;0.10;;;11.70;99.90;;;;;;4985105;28;20855;-73
2023/03/10 13:25:04;;;;;;;0.50;0.10;;;11.60;99.90;;;;;;4986492;28;20810;-73
2023/03/10 13:27:34;;;;;;;0.50;0.10;;;11.40;99.90;;;;;;4967335;28;20462;-74
2023/03/10 13:30:04;;;;;;;0.50;0.10;;;11.40;99.90;;;;;;4964024;28;20443;-72
2023/03/10 13:32:33;;;;;;;0.50;0.10;;;11.40;99.90;;;;;;4965948;29;20470;-74
2023/03/10 13:35:16;;;;;;;0.50;0.10;;;11.40;99.90;;;;;;4957775;28;20470;-73
2023/03/10 13:37:44;;;;;;;1.37;0.20;;;11.40;1.00;;;;;;4963033;28;20480;-72
2023/03/10 13:40:16;;;;;;;0.50;0.10;;;11.50;1.00;;;;;;4959642;28;20457;-73
2023/03/10 13:42:47;;;;;;;0.50;0.10;;;11.50;1.00;;;;;;4959771;29;20451;-74
2023/03/10 13:45:22;;;;;;;0.50;0.10;;;11.60;1.00;;;;;;4967079;28;20455;-74
2023/03/10 13:47:52;;;;;;;0.50;0.10;;;11.60;1.00;;;;;;4978835;28;20476;-74
2023/03/10 13:50:20;;;;;;;0.50;0.10;;;11.60;1.00;;;;;;4979226;28;20454;-73
2023/03/10 13:52:56;;;;;;;0.60;0.30;;;11.60;1.00;;;;;;4977426;28;20860;-74
2023/03/10 13:55:25;;;;;;;0.50;0.10;;;11.60;1.00;;;;;;4964640;28;20946;-75
2023/03/10 13:57:54;;;;;;;0.50;0.10;;;11.60;1.00;;;;;;4963315;28;20542;-74
2023/03/10 14:00:24;;;;;;;0.50;0.10;;;11.70;1.00;;;;;;4963188;28;21063;-74
2023/03/10 14:02:54;;;;;;;0.50;0.10;;;11.70;1.00;;;;;;4976565;28;21174;-74
2023/03/10 14:05:44;;;;;;;0.50;0.10;;;11.70;1.00;;;;;;4957280;28;20967;-73
2023/03/10 14:08:21;;;;;;;0.50;0.10;;;11.70;1.00;;;;;;4963466;28;20503;-73
2023/03/10 14:10:49;;;;;;;0.50;0.10;;;11.70;1.00;;;;;;4977558;28;20827;-74
2023/03/10 14:13:43;;;;;;;0.50;0.10;;;11.60;1.00;;;;;;4975864;28;20535;-74
2023/03/10 14:16:12;;;;;;;0.50;0.10;;;11.60;1.00;;;;;;4957641;28;20451;-74
2023/03/10 14:18:42;;;;;;;0.50;0.10;;;11.60;1.00;;;;;;4969607;28;20481;-73
2023/03/10 14:21:24;;;;;;;6.53;0.53;;;11.50;1.00;;;;;;4967555;28;20474;-74
2023/03/10 14:23:55;;;;;;;0.50;0.10;;;11.50;1.00;;;;;;4960279;28;20449;-73
2023/03/10 14:26:23;;;;;;;0.60;0.30;;;11.40;1.00;;;;;;4960256;28;20447;-74
2023/03/10 14:28:51;;;;;;;0.50;0.10;;;11.30;1.00;;;;;;4965714;28;20488;-73
2023/03/10 14:31:22;;;;;;;0.50;0.10;;;11.30;1.00;;;;;;4958868;28;20473;-75
2023/03/10 14:33:52;;;;;;;0.50;0.10;;;11.30;1.00;;;;;;4965692;29;20456;-74
2023/03/10 14:36:20;;;;;;;0.50;0.10;;;11.30;1.00;;;;;;4964627;28;20958;-74
2023/03/10 14:38:47;;;;;;;0.50;0.20;;;11.10;1.00;;;;;;4957740;28;20511;-75
2023/03/10 14:41:18;;;;;;;0.50;0.10;;;11.10;1.00;;;;;;4955314;28;20471;-74
2023/03/10 14:43:46;;;;;;;0.50;0.10;;;11.10;1.00;;;;;;4952525;28;20443;-74
2023/03/10 14:46:14;;;;;;;0.50;0.10;;;11.00;1.00;;;;;;4963551;28;20519;-74
2023/03/10 14:48:44;;;;;;;0.50;0.10;;;10.90;1.00;;;;;;4955489;29;20470;-74
2023/03/10 14:51:16;;;;;;;0.50;0.10;;;10.80;1.00;;;;;;4964996;28;21019;-73
2023/03/10 14:54:01;;;;;;;0.50;0.20;;;10.80;1.00;;;;;;4957942;28;20448;-73
2023/03/10 14:56:29;;;;;;;0.50;0.10;;;10.80;1.00;;;;;;4955190;29;20443;-73
2023/03/10 14:59:00;;;;;;;0.50;0.10;;;10.80;1.00;;;;;;4955396;29;20851;-73
2023/03/10 15:01:29;;;;;;;0.60;0.27;;;10.70;1.00;;;;;;4956777;28;20468;-73
2023/03/10 15:03:57;;;;;;;0.50;0.10;;;10.70;1.00;;;;;;4966533;28;20564;-73
2023/03/10 15:06:26;;;;;;;0.50;0.10;;;10.60;1.00;;;;;;4954758;29;20451;-74
2023/03/10 15:08:55;;;;;;;0.50;0.10;;;10.60;1.00;;;;;;4956287;29;20439;-73
2023/03/10 15:11:22;;;;;;;0.50;0.10;;;10.70;1.00;;;;;;4956687;29;20479;-73
2023/03/10 15:14:04;;;;;;;0.60;0.37;;;10.70;1.00;;;;;;4957118;29;20469;-73
2023/03/10 15:16:32;;;;;;;0.50;0.20;;;10.70;1.00;;;;;;4952081;28;20459;-73
2023/03/10 15:18:59;;;;;;;0.50;0.20;;;10.70;1.00;;;;;;4956417;28;20483;-74
2023/03/10 15:21:29;;;;;;;0.53;0.30;;;10.70;1.00;;;;;;4970750;28;20984;-73
2023/03/10 15:23:56;;;;;;;0.50;0.20;;;10.70;99.90;;;;;;4967569;28;20454;-73
2023/03/10 15:26:24;;;;;;;0.50;0.20;;;10.70;99.90;;;;;;4965272;28;20447;-73
2023/03/10 15:28:52;;;;;;;0.50;0.20;;;10.70;99.90;;;;;;4953421;29;20820;-73
2023/03/10 15:31:20;;;;;;;0.60;0.20;;;10.70;99.90;;;;;;4952624;29;20472;-71
2023/03/10 15:33:48;;;;;;;0.50;0.10;;;10.70;99.90;;;;;;4953840;28;20471;-72
2023/03/10 15:36:15;;;;;;;0.67;0.30;;;10.60;99.90;;;;;;4960885;28;20463;-73
2023/03/10 15:38:45;;;;;;;0.50;0.20;;;10.60;99.90;;;;;;4952759;29;20945;-74
2023/03/10 15:41:12;;;;;;;0.50;0.10;;;10.40;99.90;;;;;;4954120;29;20982;-73
2023/03/10 15:43:40;;;;;;;0.50;0.10;;;10.50;99.90;;;;;;4970747;28;20957;-71
2023/03/10 15:46:08;;;;;;;0.50;0.10;;;10.40;99.90;;;;;;4960837;28;20447;-73
2023/03/10 15:48:36;;;;;;;2.70;1.40;;;10.40;99.90;;;;;;4954996;29;20450;-72
2023/03/10 15:51:08;;;;;;;0.70;0.40;;;10.20;99.90;;;;;;4954706;28;20483;-74
2023/03/10 15:53:36;;;;;;;0.50;0.10;;;10.10;99.90;;;;;;4954564;28;20980;-74
2023/03/10 15:56:08;;;;;;;0.50;0.20;;;9.90;99.90;;;;;;4954467;29;20458;-73
2023/03/10 15:58:36;;;;;;;0.50;0.20;;;9.90;99.90;;;;;;4955383;29;20490;-76
2023/03/10 16:01:07;;;;;;;0.60;0.23;;;9.80;99.90;;;;;;4954823;29;21016;-76
2023/03/10 16:03:35;;;;;;;0.60;0.20;;;9.70;99.90;;;;;;4958213;28;20474;-75
2023/03/10 16:06:04;;;;;;;0.50;0.10;;;9.70;99.90;;;;;;4972302;28;20461;-73
2023/03/10 16:08:36;;;;;;;0.50;0.20;;;9.70;99.90;;;;;;4958953;28;20511;-74
2023/03/10 16:11:08;;;;;;;0.50;0.10;;;9.70;99.90;;;;;;4970966;28;21032;-73
2023/03/10 16:13:36;;;;;;;0.60;0.33;;;9.70;99.90;;;;;;4962194;28;20434;-72
2023/03/10 16:16:06;;;;;;;0.50;0.20;;;9.60;99.90;;;;;;4965095;28;21028;-73
2023/03/10 16:18:35;;;;;;;1.23;0.40;;;10.60;99.90;;;;;;4973772;28;20478;-73
2023/03/10 16:21:03;;;;;;;0.70;0.20;;;9.60;99.90;;;;;;4956817;28;20463;-74
2023/03/10 16:23:33;;;;;;;0.70;0.30;;;9.60;99.90;;;;;;4966670;28;20460;-74
2023/03/10 16:26:11;;;;;;;0.60;0.50;;;9.60;99.90;;;;;;4966852;28;20818;-75
2023/03/10 16:28:41;;;;;;;0.60;0.20;;;9.60;99.90;;;;;;4958601;28;20813;-73
2023/03/10 16:31:10;;;;;;;0.60;0.20;;;9.60;99.90;;;;;;4942944;28;20474;-74
2023/03/10 16:33:38;;;;;;;0.70;0.20;;;9.60;99.90;;;;;;4966369;28;20439;-74
2023/03/10 16:36:14;;;;;;;1.63;0.57;;;9.60;99.90;;;;;;4962059;28;20524;-74
2023/03/10 16:38:42;;;;;;;0.60;0.20;;;9.60;99.90;;;;;;4952385;29;20478;-72
2023/03/10 16:41:12;;;;;;;0.53;0.20;;;9.60;99.90;;;;;;4947641;29;20492;-74
2023/03/10 16:43:40;;;;;;;0.90;0.20;;;9.60;99.90;;;;;;4945230;29;20463;-72
2023/03/10 16:46:11;;;;;;;1.23;0.40;;;9.60;99.90;;;;;;4952344;28;20854;-71
2023/03/10 16:48:41;;;;;;;0.50;0.10;;;9.60;99.90;;;;;;4953152;28;20508;-74
2023/03/10 16:51:22;;;;;;;0.60;0.20;;;9.60;99.90;;;;;;4957421;28;20487;-75
2023/03/10 16:53:50;;;;;;;0.60;0.20;;;9.60;99.90;;;;;;4952960;29;21024;-73
2023/03/10 16:56:20;;;;;;;0.50;0.20;;;9.60;99.90;;;;;;4956192;29;20443;-72
2023/03/10 16:58:48;;;;;;;0.77;0.30;;;9.50;99.90;;;;;;4953947;28;20479;-73
2023/03/10 17:01:15;;;;;;;0.50;0.20;;;9.40;99.90;;;;;;4954691;29;20479;-72
2023/03/10 17:03:43;;;;;;;0.60;0.27;;;9.40;99.90;;;;;;4949966;28;20495;-74
2023/03/10 17:06:14;;;;;;;0.73;0.20;;;9.40;99.90;;;;;;4953279;28;20447;-72
2023/03/10 17:08:42;;;;;;;0.50;0.20;;;9.20;99.90;;;;;;4940725;28;20453;-72
2023/03/10 17:11:20;;;;;;;0.50;0.10;;;9.20;99.90;;;;;;4952395;29;21310;-73
2023/03/10 17:13:51;;;;;;;0.50;0.10;;;9.20;99.90;;;;;;4957875;28;20548;-73
2023/03/10 17:16:22;;;;;;;0.50;0.10;;;9.10;99.90;;;;;;4961917;28;20446;-74
2023/03/10 17:18:50;;;;;;;1.00;0.50;;;9.10;99.90;;;;;;4970346;28;20485;-73